Home   Weather   USA   Pembroke Pines   Past weeks
Flag for USA

Past Weather in Pembroke Pines, Florida, USA — Yesterday and Last 2 Weeks

Currently: 74 °F. Passing clouds. (Weather station: North Perry Airport, USA). See more current weather

Past Weather in Pembroke Pines — Graph

°F

Pembroke Pines Temperature Yesterday

Maximum temperature yesterday: 69 °F (at 2:53 pm)
Minimum temperature yesterday: 61 °F (at 9:53 am)
Average temperature yesterday: 65 °F

High & Low Weather Summary for the Past Weeks

 TemperatureHumidityPressure
High85 °F (Jan 23, 12:53 pm)96% (Jan 26, 3:53 am)30.31 "Hg (Jan 26, 3:53 am)
Low41 °F (Jan 15, 3:53 am)29% (Jan 16, 1:53 pm)29.94 "Hg (Jan 22, 2:53 pm)
Average68 °F69%30.12 "Hg
* Reported Jan 13 8:53 pm — Jan 28 8:53 pm, Pembroke Pines. Weather by CustomWeather, © 2023

Note: Actual official high and low records may vary slightly from our data, if they occured in-between our weather recording intervals... More about our weather records

Pembroke Pines Weather History for the Previous 24 Hours

Scroll right to see more
 ConditionsComfort  
Time TempWeatherWind HumidityBarometerVisibility
8:53 pm
Sat, Jan 28
74 °FOvercast.10 mph69%30.28 "Hg10 mi
7:53 pm74 °FOvercast.10 mph69%30.26 "Hg10 mi
6:40 pm74 °FMild.15 mph69%30.24 "Hg10 mi
6:29 pm74 °FMostly cloudy.12 mph71%30.24 "Hg10 mi
5:53 pm74 °FOvercast.14 mph69%30.23 "Hg10 mi
4:53 pm75 °FMore clouds than sun.15 mph66%30.22 "Hg10 mi
4:15 pm75 °FMore clouds than sun.15 mph69%30.23 "Hg10 mi
3:02 pm75 °FMostly cloudy.16 mph66%30.22 "Hg10 mi
2:03 pm75 °FOvercast.18 mph69%30.23 "Hg10 mi
12:53 pm76 °FPartly sunny.16 mph64%30.25 "Hg10 mi
11:53 am78 °FPartly sunny.21 mph60%30.27 "Hg10 mi
10:53 am76 °FPartly sunny.N/A62%30.30 "Hg10 mi
9:53 am74 °FMostly cloudy.17 mph69%30.31 "Hg10 mi
8:53 am73 °FOvercast.13 mph71%30.29 "Hg10 mi
8:24 am72 °FMore clouds than sun.15 mph71%30.28 "Hg10 mi
8:17 am72 °FMostly cloudy.14 mph71%30.28 "Hg10 mi
8:00 am72 °FOvercast.15 mph71%30.28 "Hg10 mi
6:53 am71 °FMild.13 mph76%30.25 "Hg10 mi
5:53 am65 °FMostly cloudy.5 mph81%30.24 "Hg10 mi
5:18 am64 °FMostly cloudy.6 mph84%30.24 "Hg10 mi
4:53 am65 °FMostly cloudy.7 mph85%30.24 "Hg10 mi
3:53 am66 °FMostly cloudy.6 mph81%30.23 "Hg10 mi
3:23 am66 °FMostly cloudy.No wind78%30.24 "Hg10 mi
2:53 am66 °FOvercast.6 mph78%30.24 "Hg10 mi
1:53 am65 °FOvercast.6 mph76%30.25 "Hg10 mi
12:53 am64 °FOvercast.9 mph75%30.26 "Hg10 mi
12:05 am65 °FOvercast.6 mph73%30.26 "Hg10 mi
11:53 pm
Fri, Jan 27
65 °FOvercast.8 mph73%30.27 "Hg10 mi
10:53 pm65 °FOvercast.6 mph73%30.27 "Hg10 mi
10:31 pm65 °FOvercast.8 mph73%30.27 "Hg10 mi
Weather by CustomWeather, © 2023

See weather overview